createdAt,value
2018-06-29T00:02:45.609Z,17.99
2018-06-29T00:07:48.930Z,17.87
2018-06-29T00:12:52.070Z,17.79
2018-06-29T00:17:57.444Z,17.73
2018-06-29T00:23:00.600Z,17.77
2018-06-29T00:28:04.643Z,17.79
2018-06-29T00:33:07.758Z,17.73
2018-06-29T00:38:10.832Z,17.64
2018-06-29T00:43:14.013Z,17.48
2018-06-29T00:48:17.231Z,17.58
2018-06-29T00:53:20.461Z,17.29
2018-06-29T00:58:23.604Z,17.08
2018-06-29T01:03:26.836Z,16.94
2018-06-29T01:08:29.942Z,16.92
2018-06-29T01:13:33.309Z,16.88
2018-06-29T01:18:36.460Z,16.92
2018-06-29T01:23:39.587Z,16.87
2018-06-29T01:28:42.676Z,16.77
2018-06-29T01:33:45.986Z,16.68
2018-06-29T01:38:49.305Z,16.53
2018-06-29T01:43:52.485Z,16.46
2018-06-29T01:48:55.767Z,16.57
2018-06-29T01:53:59.078Z,16.50
2018-06-29T01:59:02.179Z,16.64
2018-06-29T02:04:05.656Z,16.63
2018-06-29T02:09:08.773Z,16.60
2018-06-29T02:14:11.970Z,16.58
2018-06-29T02:19:15.080Z,16.63
2018-06-29T02:24:18.396Z,16.59
2018-06-29T02:29:21.634Z,16.59
2018-06-29T02:34:24.782Z,16.45
2018-06-29T02:39:27.935Z,16.35
2018-06-29T02:44:31.061Z,16.42
2018-06-29T02:49:34.181Z,16.25
2018-06-29T02:54:38.020Z,16.25
2018-06-29T02:59:41.116Z,16.12
2018-06-29T03:04:44.260Z,16.11
2018-06-29T03:09:47.626Z,16.06
2018-06-29T03:14:50.873Z,15.98
2018-06-29T03:19:54.141Z,16.00
2018-06-29T03:24:57.429Z,16.05
2018-06-29T03:30:00.632Z,16.06
2018-06-29T03:35:03.894Z,16.12
2018-06-29T03:40:07.081Z,16.28
2018-06-29T03:45:10.231Z,16.45
2018-06-29T03:50:13.352Z,16.65
2018-06-29T03:55:16.924Z,16.60
2018-06-29T04:00:20.448Z,16.73
2018-06-29T04:05:23.720Z,16.88
2018-06-29T04:10:26.876Z,16.99
2018-06-29T04:15:29.988Z,17.08
2018-06-29T04:20:33.094Z,17.12
2018-06-29T04:25:36.253Z,17.44
2018-06-29T04:30:39.602Z,22.89
2018-06-29T04:35:45.038Z,25.60
2018-06-29T04:40:48.164Z,28.20
2018-06-29T04:45:51.913Z,29.24
2018-06-29T04:50:55.209Z,29.89
2018-06-29T04:55:58.620Z,31.13
2018-06-29T05:01:01.920Z,31.72
2018-06-29T05:06:05.429Z,31.83
2018-06-29T05:11:08.689Z,32.54
2018-06-29T05:16:11.829Z,34.07
2018-06-29T05:21:15.707Z,34.86
2018-06-29T05:26:18.926Z,34.83
2018-06-29T05:31:22.081Z,34.78
2018-06-29T05:36:25.260Z,33.60
2018-06-29T05:41:28.476Z,33.84
2018-06-29T05:46:31.611Z,34.63
2018-06-29T05:51:35.113Z,34.78
2018-06-29T05:56:39.078Z,35.22
2018-06-29T06:01:43.186Z,35.98
2018-06-29T06:06:46.292Z,36.88
2018-06-29T06:11:49.566Z,36.96
2018-06-29T06:16:52.697Z,38.19
2018-06-29T06:21:55.833Z,38.82
2018-06-29T06:26:59.118Z,38.80
2018-06-29T06:32:02.488Z,38.91
2018-06-29T06:37:05.775Z,39.56
2018-06-29T06:42:08.919Z,39.09
2018-06-29T06:47:12.081Z,39.92
2018-06-29T06:52:15.215Z,38.46
2018-06-29T06:57:18.410Z,39.78
2018-06-29T07:02:21.510Z,39.88
2018-06-29T07:07:24.635Z,40.56
2018-06-29T07:12:28.132Z,40.12
2018-06-29T07:17:31.437Z,37.80
2018-06-29T07:22:34.718Z,37.72
2018-06-29T07:27:38.127Z,37.72
2018-06-29T07:32:41.290Z,38.82
2018-06-29T07:37:44.464Z,39.73
2018-06-29T07:42:48.411Z,39.78
2018-06-29T07:47:51.572Z,40.43
2018-06-29T07:52:54.754Z,39.43
2018-06-29T07:57:57.876Z,39.04
2018-06-29T08:03:01.132Z,38.78
2018-06-29T08:08:05.937Z,39.62
2018-06-29T08:13:09.859Z,38.30
2018-06-29T08:18:13.026Z,38.91
2018-06-29T08:23:16.086Z,37.76
2018-06-29T08:28:19.229Z,37.93
2018-06-29T08:33:22.376Z,37.77
2018-06-29T08:38:25.522Z,39.03
2018-06-29T08:43:28.865Z,37.82
2018-06-29T08:48:32.266Z,37.00
2018-06-29T08:53:35.475Z,38.01
2018-06-29T08:58:38.618Z,38.06
2018-06-29T09:03:41.833Z,38.25
2018-06-29T09:08:44.936Z,37.08
2018-06-29T09:13:48.102Z,36.29
2018-06-29T09:18:51.475Z,36.31
2018-06-29T09:23:54.614Z,35.90
2018-06-29T09:28:57.777Z,36.33
2018-06-29T09:34:00.988Z,35.91
2018-06-29T09:39:07.095Z,35.72
2018-06-29T09:44:10.276Z,34.89
2018-06-29T09:49:13.517Z,33.70
2018-06-29T09:54:16.594Z,36.17
2018-06-29T09:59:19.820Z,35.19
2018-06-29T10:04:23.005Z,36.34
2018-06-29T10:09:26.252Z,36.39
2018-06-29T10:14:29.919Z,34.96
2018-06-29T10:19:33.170Z,35.06
2018-06-29T10:24:36.384Z,35.04
2018-06-29T10:29:39.537Z,33.15
2018-06-29T10:34:42.655Z,33.52
2018-06-29T10:39:45.755Z,31.76
2018-06-29T10:44:49.006Z,32.69
2018-06-29T10:49:52.123Z,32.49
2018-06-29T10:54:55.259Z,33.49
2018-06-29T10:59:58.406Z,30.81
2018-06-29T11:05:01.645Z,30.43
2018-06-29T11:10:06.381Z,32.28
2018-06-29T11:15:09.754Z,30.71
2018-06-29T11:20:12.884Z,33.05
2018-06-29T11:25:15.992Z,32.89
2018-06-29T11:30:19.091Z,33.67
2018-06-29T11:35:22.218Z,32.85
2018-06-29T11:40:25.358Z,33.33
2018-06-29T11:45:28.572Z,32.86
2018-06-29T11:50:32.005Z,32.05
2018-06-29T11:55:35.842Z,31.44
2018-06-29T12:00:39.222Z,30.08
2018-06-29T12:05:42.236Z,30.58
2018-06-29T12:10:45.432Z,31.07
2018-06-29T12:15:49.331Z,31.67
2018-06-29T12:20:52.550Z,31.75
2018-06-29T12:25:55.693Z,31.58
2018-06-29T12:30:58.968Z,32.42
2018-06-29T12:36:02.286Z,32.35
2018-06-29T12:41:05.526Z,32.16
2018-06-29T12:46:08.671Z,32.31
2018-06-29T12:51:11.736Z,32.46
2018-06-29T12:56:15.039Z,32.75
2018-06-29T13:01:18.196Z,32.29
2018-06-29T13:06:21.370Z,32.19
2018-06-29T13:11:24.638Z,32.32
2018-06-29T13:16:27.917Z,31.87
2018-06-29T13:21:31.198Z,32.48
2018-06-29T13:26:34.559Z,33.33
2018-06-29T13:31:37.687Z,32.66
2018-06-29T13:36:40.918Z,31.92
2018-06-29T13:41:44.078Z,31.87
2018-06-29T13:46:47.210Z,31.72
2018-06-29T13:51:50.417Z,32.73
2018-06-29T13:56:53.653Z,32.52
2018-06-29T14:01:57.758Z,31.68
2018-06-29T14:07:01.707Z,32.32
2018-06-29T14:12:04.863Z,33.15
2018-06-29T14:17:07.944Z,32.81
2018-06-29T14:22:11.157Z,32.74
2018-06-29T14:27:14.388Z,31.71
2018-06-29T14:32:17.521Z,31.28
2018-06-29T14:37:20.635Z,31.83
2018-06-29T14:42:24.123Z,32.10
2018-06-29T14:47:27.636Z,32.19
2018-06-29T14:52:30.770Z,32.62
2018-06-29T14:57:34.927Z,32.60
2018-06-29T15:02:38.110Z,32.91
2018-06-29T15:07:41.280Z,32.22
2018-06-29T15:12:44.390Z,32.01
2018-06-29T15:17:47.558Z,32.68
2018-06-29T15:22:50.838Z,32.25
2018-06-29T15:27:54.085Z,32.29
2018-06-29T15:32:57.338Z,32.07
2018-06-29T15:38:00.580Z,31.50
2018-06-29T15:43:04.150Z,31.42
2018-06-29T15:48:07.908Z,30.39
2018-06-29T15:53:11.323Z,30.78
2018-06-29T15:58:14.665Z,31.26
2018-06-29T16:03:17.824Z,30.42
2018-06-29T16:08:21.100Z,29.69
2018-06-29T16:13:24.640Z,30.74
2018-06-29T16:18:27.803Z,29.73
2018-06-29T16:23:30.991Z,27.68
2018-06-29T16:28:34.147Z,26.69
2018-06-29T16:33:37.316Z,27.31
2018-06-29T16:38:40.487Z,26.44
2018-06-29T16:43:43.781Z,27.60
2018-06-29T16:48:49.025Z,27.70
2018-06-29T16:53:52.212Z,27.69
2018-06-29T16:58:55.989Z,26.34
2018-06-29T17:03:59.235Z,26.26
2018-06-29T17:09:02.908Z,25.30
2018-06-29T17:14:06.102Z,24.33
2018-06-29T17:19:09.224Z,24.37
2018-06-29T17:24:12.800Z,24.67
2018-06-29T17:29:16.300Z,24.76
2018-06-29T17:34:19.563Z,25.11
2018-06-29T17:39:22.737Z,24.87
2018-06-29T17:44:25.832Z,25.00
2018-06-29T17:49:29.002Z,24.06
2018-06-29T17:54:32.153Z,24.60
2018-06-29T17:59:35.241Z,25.05
2018-06-29T18:04:38.540Z,24.96
2018-06-29T18:09:41.707Z,24.19
2018-06-29T18:14:45.266Z,23.23
2018-06-29T18:19:48.495Z,22.58
2018-06-29T18:24:51.951Z,22.65
2018-06-29T18:29:55.453Z,22.30
2018-06-29T18:34:58.902Z,21.81
2018-06-29T18:40:02.379Z,21.90
2018-06-29T18:45:06.844Z,21.77
2018-06-29T18:50:10.844Z,21.80
2018-06-29T18:55:17.676Z,21.27
2018-06-29T19:00:21.466Z,21.14
2018-06-29T19:05:25.562Z,20.92
2018-06-29T19:10:30.317Z,20.64
2018-06-29T19:15:35.906Z,20.47
2018-06-29T19:20:40.378Z,20.28
2018-06-29T19:25:44.198Z,20.06
2018-06-29T19:30:47.940Z,19.81
2018-06-29T19:35:52.469Z,19.64
2018-06-29T19:40:56.644Z,19.52
2018-06-29T19:46:00.411Z,19.43
2018-06-29T19:51:03.953Z,19.32
2018-06-29T19:56:07.848Z,19.23
2018-06-29T20:01:10.983Z,19.11
2018-06-29T20:06:14.288Z,19.04
2018-06-29T20:11:17.514Z,19.06
2018-06-29T20:16:20.683Z,18.94
2018-06-29T20:21:23.895Z,18.83
2018-06-29T20:26:27.109Z,18.92
2018-06-29T20:31:30.299Z,18.73
2018-06-29T20:36:33.385Z,18.63
2018-06-29T20:41:36.563Z,18.58
2018-06-29T20:46:39.681Z,18.43
2018-06-29T20:51:42.822Z,18.26
2018-06-29T20:56:46.068Z,18.14
2018-06-29T21:01:49.336Z,18.04
2018-06-29T21:06:52.860Z,17.89
2018-06-29T21:11:56.709Z,17.73
2018-06-29T21:16:59.864Z,17.55
2018-06-29T21:22:03.080Z,17.40
2018-06-29T21:27:06.658Z,17.21
2018-06-29T21:32:09.816Z,17.12
2018-06-29T21:37:12.955Z,16.87
2018-06-29T21:42:16.172Z,16.77
2018-06-29T21:47:19.390Z,16.60
2018-06-29T21:52:22.955Z,16.58
2018-06-29T21:57:26.113Z,16.48
2018-06-29T22:02:29.287Z,16.28
2018-06-29T22:07:32.497Z,16.22
2018-06-29T22:12:35.654Z,16.08
2018-06-29T22:17:38.796Z,16.01
2018-06-29T22:22:41.970Z,15.93
2018-06-29T22:27:45.154Z,15.86
2018-06-29T22:32:48.265Z,15.85
2018-06-29T22:37:51.507Z,15.86
2018-06-29T22:42:55.067Z,15.57
2018-06-29T22:47:58.212Z,15.55
2018-06-29T22:53:01.313Z,15.55
2018-06-29T22:58:04.815Z,15.45
2018-06-29T23:03:08.146Z,15.31
2018-06-29T23:08:11.432Z,15.26
2018-06-29T23:13:14.989Z,15.11
2018-06-29T23:18:18.146Z,15.06
2018-06-29T23:23:21.312Z,15.09
2018-06-29T23:28:24.545Z,15.08
2018-06-29T23:33:27.660Z,14.98
2018-06-29T23:38:30.794Z,14.91
2018-06-29T23:43:34.916Z,14.81
2018-06-29T23:48:38.332Z,14.81
2018-06-29T23:53:41.439Z,14.76
2018-06-29T23:58:44.672Z,14.67
